SIA511 VOBL-WSSS
Flight info
| Callsign | SIA511 |
|---|---|
| Flight time | N/A |
| Altitude | 41000 |
| Route | TULNA W116 MMV P761 IDASO N571 GUNIP R467 VKL A464 ARAMA DCT TEBUN |
| Aircraft | A359/H-SDE1E2E3GHIJ1J2J3J5M1P2RWXYZ/LB1D1 |
Departure
| Time | 2026-05-05 11:53 |
|---|---|
| Airport | Kempegowda International Airport Bengaluru (VOBL) |
Arrival
| Time | N/A |
|---|---|
| Airport | Singapore Changi Airport (WSSS) |
| Time | Latitude | Longitude | Altitude | Speed | Heading |
|---|---|---|---|---|---|
| 2026-05-05 11:22 | 13.20073 | 77.71664 | 2945 ft | 0 kts | 175° |
| 2026-05-05 11:40 | 13.20090 | 77.71663 | 2932 ft | 3 kts | 178° |
| 2026-05-05 11:40 | 13.20113 | 77.71663 | 2932 ft | 3 kts | 181° |
| 2026-05-05 11:41 | 13.20135 | 77.71663 | 2936 ft | 2 kts | 180° |
| 2026-05-05 11:41 | 13.20157 | 77.71661 | 2932 ft | 3 kts | 161° |
| 2026-05-05 11:41 | 13.20177 | 77.71650 | 2932 ft | 3 kts | 127° |
| 2026-05-05 11:41 | 13.20186 | 77.71629 | 2938 ft | 4 kts | 94° |
| 2026-05-05 11:42 | 13.20185 | 77.71606 | 2933 ft | 5 kts | 82° |
| 2026-05-05 11:42 | 13.20182 | 77.71582 | 2935 ft | 4 kts | 89° |
| 2026-05-05 11:42 | 13.20182 | 77.71579 | 2936 ft | 4 kts | 90° |
| 2026-05-05 11:45 | 13.20182 | 77.71580 | 2935 ft | 1 kts | 90° |
| 2026-05-05 11:46 | 13.20182 | 77.71606 | 2933 ft | 7 kts | 90° |
| 2026-05-05 11:46 | 13.20181 | 77.71675 | 2932 ft | 12 kts | 90° |
| 2026-05-05 11:46 | 13.20180 | 77.71777 | 2941 ft | 16 kts | 90° |
| 2026-05-05 11:46 | 13.20180 | 77.71899 | 2939 ft | 19 kts | 91° |
| 2026-05-05 11:47 | 13.20178 | 77.72041 | 2935 ft | 21 kts | 91° |
| 2026-05-05 11:47 | 13.20177 | 77.72181 | 2932 ft | 19 kts | 90° |
| 2026-05-05 11:47 | 13.20177 | 77.72310 | 2930 ft | 16 kts | 90° |
| 2026-05-05 11:47 | 13.20176 | 77.72422 | 2930 ft | 15 kts | 90° |
| 2026-05-05 11:48 | 13.20122 | 77.72527 | 2923 ft | 9 kts | 176° |
| 2026-05-05 11:48 | 13.20047 | 77.72529 | 2926 ft | 12 kts | 180° |
| 2026-05-05 11:48 | 13.19954 | 77.72527 | 2926 ft | 15 kts | 181° |
| 2026-05-05 11:49 | 13.19843 | 77.72525 | 2929 ft | 17 kts | 181° |
| 2026-05-05 11:49 | 13.19719 | 77.72524 | 2928 ft | 18 kts | 180° |
| 2026-05-05 11:49 | 13.19590 | 77.72523 | 2925 ft | 19 kts | 181° |
| 2026-05-05 11:49 | 13.19452 | 77.72521 | 2925 ft | 20 kts | 181° |
| 2026-05-05 11:50 | 13.19316 | 77.72520 | 2928 ft | 16 kts | 180° |
| 2026-05-05 11:50 | 13.19233 | 77.72519 | 2927 ft | 9 kts | 180° |
| 2026-05-05 11:50 | 13.19196 | 77.72554 | 2925 ft | 8 kts | 96° |
| 2026-05-05 11:50 | 13.19197 | 77.72623 | 2926 ft | 11 kts | 90° |
| 2026-05-05 11:51 | 13.19159 | 77.72674 | 2922 ft | 10 kts | 169° |
| 2026-05-05 11:51 | 13.19084 | 77.72676 | 2921 ft | 11 kts | 179° |
| 2026-05-05 11:51 | 13.19009 | 77.72677 | 2923 ft | 9 kts | 180° |
| 2026-05-05 11:51 | 13.18953 | 77.72661 | 2926 ft | 8 kts | 229° |
| 2026-05-05 11:52 | 13.18946 | 77.72605 | 2923 ft | 12 kts | 269° |
| 2026-05-05 11:52 | 13.18947 | 77.72335 | 2937 ft | 74 kts | 271° |
| 2026-05-05 11:52 | 13.18953 | 77.71558 | 2954 ft | 142 kts | 270° |
| 2026-05-05 11:52 | 13.18956 | 77.70392 | 3308 ft | 169 kts | 273° |
| 2026-05-05 11:53 | 13.18999 | 77.69206 | 4134 ft | 166 kts | 279° |
| 2026-05-05 11:53 | 13.19168 | 77.68055 | 4801 ft | 162 kts | 281° |
| 2026-05-05 11:53 | 13.19350 | 77.66915 | 5306 ft | 162 kts | 281° |
| 2026-05-05 11:53 | 13.19520 | 77.65769 | 5818 ft | 163 kts | 281° |
| 2026-05-05 11:54 | 13.19681 | 77.64604 | 6266 ft | 171 kts | 281° |
| 2026-05-05 11:54 | 13.19854 | 77.63331 | 6562 ft | 190 kts | 280° |
| 2026-05-05 11:54 | 13.20035 | 77.61907 | 6858 ft | 214 kts | 278° |
| 2026-05-05 11:54 | 13.20119 | 77.60299 | 7135 ft | 238 kts | 273° |
| 2026-05-05 11:55 | 13.20138 | 77.58525 | 7447 ft | 260 kts | 272° |
| 2026-05-05 11:55 | 13.20148 | 77.56597 | 7804 ft | 279 kts | 272° |
| 2026-05-05 11:55 | 13.20159 | 77.54577 | 8433 ft | 287 kts | 272° |
| 2026-05-05 11:55 | 13.20171 | 77.52518 | 9203 ft | 291 kts | 272° |
| 2026-05-05 11:56 | 13.20184 | 77.50434 | 9884 ft | 293 kts | 272° |
| 2026-05-05 11:56 | 13.20192 | 77.48319 | 10252 ft | 303 kts | 271° |
| 2026-05-05 11:56 | 13.19832 | 77.46142 | 10434 ft | 320 kts | 250° |
| 2026-05-05 11:56 | 13.18531 | 77.44242 | 10613 ft | 336 kts | 222° |
| 2026-05-05 11:57 | 13.16456 | 77.43079 | 10797 ft | 350 kts | 196° |
| 2026-05-05 11:57 | 13.14019 | 77.42661 | 10921 ft | 363 kts | 183° |
| 2026-05-05 11:57 | 13.11469 | 77.42873 | 10946 ft | 373 kts | 165° |
| 2026-05-05 11:57 | 13.09108 | 77.43947 | 10951 ft | 373 kts | 144° |
| 2026-05-05 11:58 | 13.07267 | 77.45793 | 10950 ft | 370 kts | 124° |
| 2026-05-05 11:58 | 13.06184 | 77.48157 | 10953 ft | 366 kts | 103° |
| 2026-05-05 11:58 | 13.05973 | 77.50732 | 10959 ft | 362 kts | 82° |
| 2026-05-05 11:58 | 13.06338 | 77.53283 | 10961 ft | 362 kts | 82° |
| 2026-05-05 11:59 | 13.06383 | 77.55859 | 10964 ft | 363 kts | 90° |
| 2026-05-05 11:59 | 13.06257 | 77.58450 | 10963 ft | 364 kts | 91° |
| 2026-05-05 11:59 | 13.06106 | 77.61041 | 10967 ft | 363 kts | 92° |
| 2026-05-05 11:59 | 13.05952 | 77.63617 | 10964 ft | 362 kts | 92° |
| 2026-05-05 12:00 | 13.05797 | 77.66199 | 10962 ft | 362 kts | 92° |
| 2026-05-05 12:00 | 13.05643 | 77.68776 | 10965 ft | 362 kts | 92° |
| 2026-05-05 12:00 | 13.05488 | 77.71348 | 10967 ft | 362 kts | 92° |
| 2026-05-05 12:00 | 13.05333 | 77.73926 | 10966 ft | 362 kts | 92° |
| 2026-05-05 12:01 | 13.05178 | 77.76502 | 10967 ft | 362 kts | 92° |
| 2026-05-05 12:01 | 13.05023 | 77.79079 | 10966 ft | 362 kts | 92° |
| 2026-05-05 12:01 | 13.04870 | 77.81665 | 11086 ft | 365 kts | 92° |
| 2026-05-05 12:01 | 13.04712 | 77.84266 | 11542 ft | 365 kts | 92° |
| 2026-05-05 12:02 | 13.04554 | 77.86873 | 11969 ft | 367 kts | 92° |
| 2026-05-05 12:02 | 13.04394 | 77.89494 | 12353 ft | 370 kts | 92° |
| 2026-05-05 12:02 | 13.04234 | 77.92132 | 12757 ft | 372 kts | 92° |
| 2026-05-05 12:02 | 13.04072 | 77.94786 | 13126 ft | 374 kts | 93° |
| 2026-05-05 12:03 | 13.03910 | 77.97455 | 13561 ft | 374 kts | 92° |
| 2026-05-05 12:03 | 13.03747 | 78.00115 | 14006 ft | 374 kts | 92° |
| 2026-05-05 12:03 | 13.03583 | 78.02792 | 14274 ft | 378 kts | 93° |
| 2026-05-05 12:03 | 13.03418 | 78.05497 | 14554 ft | 383 kts | 93° |
| 2026-05-05 12:04 | 13.03250 | 78.08229 | 14851 ft | 385 kts | 93° |
| 2026-05-05 12:04 | 13.03081 | 78.10983 | 15143 ft | 389 kts | 93° |
| 2026-05-05 12:04 | 13.02910 | 78.13759 | 15456 ft | 391 kts | 93° |
| 2026-05-05 12:04 | 13.02738 | 78.16558 | 15739 ft | 395 kts | 93° |
| 2026-05-05 12:05 | 13.02565 | 78.19379 | 16060 ft | 398 kts | 93° |
| 2026-05-05 12:05 | 13.02392 | 78.22217 | 16368 ft | 400 kts | 94° |
| 2026-05-05 12:05 | 13.02215 | 78.25043 | 16599 ft | 405 kts | 94° |
| 2026-05-05 12:05 | 13.02035 | 78.27928 | 16965 ft | 406 kts | 94° |
| 2026-05-05 12:06 | 13.01855 | 78.30814 | 17301 ft | 408 kts | 94° |
| 2026-05-05 12:06 | 13.01673 | 78.33726 | 17586 ft | 411 kts | 94° |
| 2026-05-05 12:06 | 13.01490 | 78.36656 | 17942 ft | 412 kts | 94° |
| 2026-05-05 12:06 | 13.01306 | 78.39599 | 18242 ft | 415 kts | 94° |
| 2026-05-05 12:07 | 13.01120 | 78.42562 | 18488 ft | 417 kts | 94° |
| 2026-05-05 12:07 | 13.00934 | 78.45537 | 18776 ft | 419 kts | 94° |
| 2026-05-05 12:07 | 13.00746 | 78.48524 | 19037 ft | 421 kts | 94° |
| 2026-05-05 12:07 | 13.00557 | 78.51524 | 19297 ft | 423 kts | 94° |
| 2026-05-05 12:08 | 13.00367 | 78.54536 | 19582 ft | 424 kts | 94° |
| 2026-05-05 12:08 | 13.00176 | 78.57560 | 19851 ft | 426 kts | 94° |
| 2026-05-05 12:08 | 12.99984 | 78.60596 | 20118 ft | 428 kts | 94° |
| 2026-05-05 12:08 | 12.99790 | 78.63644 | 20387 ft | 429 kts | 94° |
| 2026-05-05 12:09 | 12.99596 | 78.66706 | 20649 ft | 431 kts | 94° |
| 2026-05-05 12:09 | 12.99400 | 78.69779 | 20881 ft | 433 kts | 94° |
| 2026-05-05 12:09 | 12.99203 | 78.72867 | 21132 ft | 435 kts | 94° |
| 2026-05-05 12:09 | 12.99005 | 78.75968 | 21389 ft | 437 kts | 94° |
| 2026-05-05 12:10 | 12.98805 | 78.79082 | 21637 ft | 439 kts | 94° |
| 2026-05-05 12:10 | 12.98605 | 78.82200 | 21883 ft | 440 kts | 94° |
| 2026-05-05 12:10 | 12.98404 | 78.85337 | 22117 ft | 442 kts | 94° |
| 2026-05-05 12:10 | 12.98201 | 78.88484 | 22357 ft | 443 kts | 94° |
| 2026-05-05 12:11 | 12.97997 | 78.91643 | 22591 ft | 445 kts | 94° |
| 2026-05-05 12:11 | 12.97792 | 78.94814 | 22828 ft | 446 kts | 94° |
| 2026-05-05 12:11 | 12.97586 | 78.97995 | 23052 ft | 448 kts | 94° |
| 2026-05-05 12:11 | 12.97379 | 79.01189 | 23253 ft | 450 kts | 94° |
| 2026-05-05 12:12 | 12.97171 | 79.04393 | 23455 ft | 451 kts | 94° |
| 2026-05-05 12:12 | 12.96965 | 79.07567 | 23618 ft | 453 kts | 95° |
| 2026-05-05 12:12 | 12.96849 | 79.10852 | 23763 ft | 456 kts | 91° |
| 2026-05-05 12:12 | 12.96853 | 79.14064 | 23943 ft | 457 kts | 90° |
| 2026-05-05 12:13 | 12.96915 | 79.17329 | 24136 ft | 458 kts | 89° |
| 2026-05-05 12:13 | 12.97000 | 79.20597 | 24329 ft | 459 kts | 89° |
| 2026-05-05 12:13 | 12.97088 | 79.23875 | 24507 ft | 461 kts | 89° |
| 2026-05-05 12:13 | 12.97172 | 79.27162 | 24704 ft | 461 kts | 89° |
| 2026-05-05 12:14 | 12.97247 | 79.30447 | 24869 ft | 463 kts | 89° |
| 2026-05-05 12:14 | 12.97317 | 79.33748 | 25058 ft | 464 kts | 89° |
| 2026-05-05 12:14 | 12.97383 | 79.37057 | 25250 ft | 465 kts | 90° |
| 2026-05-05 12:14 | 12.97446 | 79.40375 | 25417 ft | 466 kts | 90° |
| 2026-05-05 12:15 | 12.97508 | 79.43700 | 25622 ft | 467 kts | 89° |
| 2026-05-05 12:15 | 12.97570 | 79.47025 | 25847 ft | 467 kts | 89° |
| 2026-05-05 12:15 | 12.97631 | 79.50357 | 26022 ft | 468 kts | 89° |
| 2026-05-05 12:15 | 12.97693 | 79.53697 | 26205 ft | 469 kts | 89° |
| 2026-05-05 12:16 | 12.97755 | 79.57046 | 26386 ft | 470 kts | 89° |
| 2026-05-05 12:16 | 12.97816 | 79.60404 | 26579 ft | 472 kts | 89° |
| 2026-05-05 12:16 | 12.97877 | 79.63769 | 26766 ft | 473 kts | 89° |
| 2026-05-05 12:16 | 12.97938 | 79.67142 | 26956 ft | 474 kts | 89° |
| 2026-05-05 12:17 | 12.97999 | 79.70524 | 27150 ft | 475 kts | 89° |
| 2026-05-05 12:17 | 12.98060 | 79.73916 | 27343 ft | 476 kts | 89° |
| 2026-05-05 12:17 | 12.98120 | 79.77316 | 27540 ft | 478 kts | 89° |
| 2026-05-05 12:17 | 12.98180 | 79.80724 | 27717 ft | 479 kts | 90° |
| 2026-05-05 12:18 | 12.98239 | 79.84135 | 27925 ft | 480 kts | 89° |
| 2026-05-05 12:18 | 12.98298 | 79.87566 | 28093 ft | 482 kts | 90° |
| 2026-05-05 12:18 | 12.98357 | 79.91007 | 28323 ft | 483 kts | 90° |
| 2026-05-05 12:18 | 12.98416 | 79.94453 | 28491 ft | 485 kts | 90° |
| 2026-05-05 12:19 | 12.98475 | 79.97916 | 28678 ft | 486 kts | 90° |
| 2026-05-05 12:19 | 12.98513 | 80.00215 | 28831 ft | 486 kts | 89° |
| 2026-05-05 12:19 | 12.98571 | 80.03684 | 28978 ft | 489 kts | 89° |
| 2026-05-05 12:19 | 12.98629 | 80.07171 | 29219 ft | 489 kts | 89° |
| 2026-05-05 12:20 | 12.98686 | 80.10661 | 29384 ft | 491 kts | 90° |
| 2026-05-05 12:20 | 12.98728 | 80.14166 | 29558 ft | 492 kts | 91° |
| 2026-05-05 12:20 | 12.98537 | 80.17668 | 29770 ft | 493 kts | 95° |
| 2026-05-05 12:20 | 12.98266 | 80.21184 | 29864 ft | 496 kts | 95° |
| 2026-05-05 12:21 | 12.97962 | 80.24708 | 30064 ft | 496 kts | 96° |
| 2026-05-05 12:21 | 12.97642 | 80.28231 | 30214 ft | 498 kts | 96° |
| 2026-05-05 12:21 | 12.97314 | 80.31769 | 30417 ft | 498 kts | 96° |
| 2026-05-05 12:21 | 12.96986 | 80.35310 | 30613 ft | 500 kts | 96° |
| 2026-05-05 12:22 | 12.96658 | 80.38868 | 30754 ft | 502 kts | 96° |
| 2026-05-05 12:22 | 12.96332 | 80.42428 | 30970 ft | 502 kts | 96° |
| 2026-05-05 12:22 | 12.96005 | 80.46001 | 31107 ft | 504 kts | 96° |
| 2026-05-05 12:22 | 12.95680 | 80.49579 | 31355 ft | 504 kts | 96° |
| 2026-05-05 12:23 | 12.95355 | 80.53152 | 31570 ft | 504 kts | 96° |
| 2026-05-05 12:23 | 12.95028 | 80.56733 | 31720 ft | 505 kts | 96° |
| 2026-05-05 12:23 | 12.94701 | 80.60314 | 31873 ft | 506 kts | 96° |
| 2026-05-05 12:23 | 12.94371 | 80.63913 | 32034 ft | 508 kts | 96° |
| 2026-05-05 12:24 | 12.94040 | 80.67518 | 32180 ft | 509 kts | 96° |
| 2026-05-05 12:24 | 12.93707 | 80.71131 | 32331 ft | 510 kts | 96° |
| 2026-05-05 12:24 | 12.93374 | 80.74752 | 32476 ft | 511 kts | 96° |
| 2026-05-05 12:24 | 12.93039 | 80.78380 | 32632 ft | 512 kts | 96° |
| 2026-05-05 12:25 | 12.92704 | 80.82014 | 32765 ft | 513 kts | 96° |
| 2026-05-05 12:25 | 12.92367 | 80.85657 | 32898 ft | 514 kts | 96° |
| 2026-05-05 12:25 | 12.92029 | 80.89306 | 33034 ft | 515 kts | 96° |
| 2026-05-05 12:25 | 12.91691 | 80.92956 | 33281 ft | 512 kts | 97° |
| 2026-05-05 12:26 | 12.91358 | 80.96555 | 33862 ft | 503 kts | 97° |
| 2026-05-05 12:26 | 12.91028 | 81.00114 | 34156 ft | 501 kts | 97° |
| 2026-05-05 12:26 | 12.90700 | 81.03625 | 34292 ft | 502 kts | 97° |
| 2026-05-05 12:26 | 12.90367 | 81.07191 | 34452 ft | 503 kts | 97° |
| 2026-05-05 12:27 | 12.90029 | 81.10802 | 34672 ft | 502 kts | 97° |
| 2026-05-05 12:27 | 12.89695 | 81.14364 | 34886 ft | 502 kts | 97° |
| 2026-05-05 12:27 | 12.89367 | 81.17867 | 35103 ft | 501 kts | 97° |
| 2026-05-05 12:27 | 12.89033 | 81.21422 | 35332 ft | 501 kts | 97° |
| 2026-05-05 12:28 | 12.88700 | 81.24974 | 35560 ft | 500 kts | 97° |
| 2026-05-05 12:28 | 12.88366 | 81.28522 | 35783 ft | 500 kts | 97° |
| 2026-05-05 12:28 | 12.88031 | 81.32076 | 35946 ft | 502 kts | 97° |
| 2026-05-05 12:28 | 12.87694 | 81.35637 | 36121 ft | 502 kts | 97° |
| 2026-05-05 12:29 | 12.87358 | 81.39198 | 36377 ft | 502 kts | 97° |
| 2026-05-05 12:29 | 12.87021 | 81.42752 | 36613 ft | 501 kts | 97° |
| 2026-05-05 12:29 | 12.86685 | 81.46304 | 36838 ft | 500 kts | 97° |
| 2026-05-05 12:29 | 12.86348 | 81.49852 | 37083 ft | 500 kts | 97° |
| 2026-05-05 12:30 | 12.86011 | 81.53397 | 37315 ft | 499 kts | 97° |
| 2026-05-05 12:30 | 12.85674 | 81.56938 | 37545 ft | 499 kts | 97° |
| 2026-05-05 12:30 | 12.85336 | 81.60477 | 37785 ft | 499 kts | 97° |
| 2026-05-05 12:30 | 12.85000 | 81.64002 | 38013 ft | 498 kts | 97° |
| 2026-05-05 12:31 | 12.84662 | 81.67535 | 38201 ft | 499 kts | 97° |
| 2026-05-05 12:31 | 12.84322 | 81.71078 | 38331 ft | 500 kts | 97° |
| 2026-05-05 12:31 | 12.83982 | 81.74626 | 38531 ft | 500 kts | 97° |
| 2026-05-05 12:31 | 12.83641 | 81.78171 | 38736 ft | 499 kts | 97° |
| 2026-05-05 12:32 | 12.83302 | 81.81700 | 38953 ft | 497 kts | 97° |
| 2026-05-05 12:32 | 12.82963 | 81.85221 | 39178 ft | 496 kts | 97° |
| 2026-05-05 12:32 | 12.82625 | 81.88732 | 39388 ft | 494 kts | 97° |
| 2026-05-05 12:32 | 12.82287 | 81.92233 | 39588 ft | 493 kts | 97° |
| 2026-05-05 12:33 | 12.81949 | 81.95725 | 39787 ft | 492 kts | 97° |
| 2026-05-05 12:33 | 12.81616 | 81.99166 | 39976 ft | 491 kts | 97° |
| 2026-05-05 12:33 | 12.81279 | 82.02640 | 40157 ft | 490 kts | 97° |
| 2026-05-05 12:33 | 12.80937 | 82.06156 | 40334 ft | 489 kts | 97° |
| 2026-05-05 12:34 | 12.80601 | 82.09618 | 40507 ft | 488 kts | 97° |
| 2026-05-05 12:34 | 12.80264 | 82.13074 | 40671 ft | 487 kts | 96° |
| 2026-05-05 12:34 | 12.79932 | 82.16478 | 40797 ft | 487 kts | 97° |
| 2026-05-05 12:34 | 12.79591 | 82.19974 | 40822 ft | 486 kts | 97° |
| 2026-05-05 12:35 | 12.78917 | 82.26854 | 40822 ft | 486 kts | 96° |
| 2026-05-05 12:35 | 12.78242 | 82.33738 | 40824 ft | 486 kts | 97° |
| 2026-05-05 12:36 | 12.77565 | 82.40620 | 40826 ft | 486 kts | 96° |
| 2026-05-05 12:36 | 12.76886 | 82.47502 | 40825 ft | 486 kts | 96° |
| 2026-05-05 12:37 | 12.76210 | 82.54341 | 40827 ft | 486 kts | 96° |
| 2026-05-05 12:37 | 12.75527 | 82.61223 | 40825 ft | 486 kts | 96° |
| 2026-05-05 12:38 | 12.74844 | 82.68098 | 40826 ft | 486 kts | 97° |
| 2026-05-05 12:38 | 12.74157 | 82.74979 | 40827 ft | 486 kts | 96° |
| 2026-05-05 12:39 | 12.73469 | 82.81860 | 40828 ft | 485 kts | 96° |
| 2026-05-05 12:39 | 12.72781 | 82.88734 | 40831 ft | 485 kts | 96° |
| 2026-05-05 12:40 | 12.72090 | 82.95604 | 40834 ft | 485 kts | 97° |
| 2026-05-05 12:40 | 12.71398 | 83.02474 | 40832 ft | 485 kts | 97° |
| 2026-05-05 12:41 | 12.70705 | 83.09344 | 40834 ft | 485 kts | 97° |
| 2026-05-05 12:41 | 12.70009 | 83.16212 | 40834 ft | 485 kts | 96° |
| 2026-05-05 12:42 | 12.69313 | 83.23069 | 40836 ft | 484 kts | 97° |
| 2026-05-05 12:42 | 12.68614 | 83.29933 | 40835 ft | 485 kts | 96° |
| 2026-05-05 12:43 | 12.67914 | 83.36785 | 40834 ft | 483 kts | 97° |
| 2026-05-05 12:43 | 12.67216 | 83.43614 | 40831 ft | 482 kts | 96° |
| 2026-05-05 12:44 | 12.66516 | 83.50438 | 40835 ft | 482 kts | 97° |
| 2026-05-05 12:44 | 12.65083 | 83.57109 | 40835 ft | 479 kts | 111° |
| 2026-05-05 12:45 | 12.62359 | 83.63316 | 40833 ft | 478 kts | 116° |
| 2026-05-05 12:45 | 12.59415 | 83.69410 | 40834 ft | 477 kts | 117° |
| 2026-05-05 12:46 | 12.56449 | 83.75487 | 40835 ft | 478 kts | 117° |
| 2026-05-05 12:46 | 12.53500 | 83.81578 | 40838 ft | 478 kts | 116° |
| 2026-05-05 12:47 | 12.50559 | 83.87676 | 40840 ft | 478 kts | 116° |
| 2026-05-05 12:47 | 12.47641 | 83.93733 | 40839 ft | 478 kts | 117° |
| 2026-05-05 12:48 | 12.44701 | 83.99828 | 40840 ft | 477 kts | 117° |
| 2026-05-05 12:48 | 12.41765 | 84.05910 | 40840 ft | 477 kts | 117° |
| 2026-05-05 12:49 | 12.38824 | 84.11996 | 40837 ft | 477 kts | 117° |
| 2026-05-05 12:49 | 12.35882 | 84.18081 | 40839 ft | 477 kts | 117° |
| 2026-05-05 12:50 | 12.32939 | 84.24163 | 40838 ft | 477 kts | 116° |
| 2026-05-05 12:50 | 12.29995 | 84.30242 | 40835 ft | 476 kts | 116° |
| 2026-05-05 12:51 | 12.27052 | 84.36316 | 40836 ft | 477 kts | 116° |
| 2026-05-05 12:51 | 12.24106 | 84.42394 | 40834 ft | 477 kts | 116° |
| 2026-05-05 12:52 | 12.21158 | 84.48471 | 40837 ft | 477 kts | 116° |
| 2026-05-05 12:52 | 12.18209 | 84.54546 | 40841 ft | 477 kts | 116° |
| 2026-05-05 12:53 | 12.15261 | 84.60614 | 40840 ft | 477 kts | 116° |
| 2026-05-05 12:53 | 12.12309 | 84.66687 | 40841 ft | 477 kts | 116° |
| 2026-05-05 12:54 | 12.07870 | 84.75811 | 40844 ft | 479 kts | 116° |
| 2026-05-05 12:55 | 12.04903 | 84.81904 | 40841 ft | 479 kts | 116° |
| 2026-05-05 12:55 | 12.01954 | 84.87955 | 40843 ft | 479 kts | 116° |
| 2026-05-05 12:56 | 11.98984 | 84.94046 | 40843 ft | 479 kts | 116° |
| 2026-05-05 12:56 | 11.96015 | 85.00131 | 40847 ft | 478 kts | 116° |
| 2026-05-05 12:57 | 11.93050 | 85.06205 | 40844 ft | 478 kts | 116° |
| 2026-05-05 12:57 | 11.90075 | 85.12293 | 40847 ft | 479 kts | 116° |
| 2026-05-05 12:58 | 11.87096 | 85.18388 | 40847 ft | 480 kts | 116° |
| 2026-05-05 12:58 | 11.84114 | 85.24482 | 40850 ft | 480 kts | 116° |
| 2026-05-05 12:59 | 11.81132 | 85.30575 | 40852 ft | 480 kts | 116° |
| 2026-05-05 12:59 | 11.78148 | 85.36666 | 40851 ft | 480 kts | 116° |
| 2026-05-05 13:00 | 11.73674 | 85.45793 | 40855 ft | 480 kts | 116° |
| 2026-05-05 13:01 | 11.67695 | 85.57974 | 40853 ft | 480 kts | 116° |
| 2026-05-05 13:01 | 11.64703 | 85.64066 | 40852 ft | 480 kts | 116° |
| 2026-05-05 13:02 | 11.61729 | 85.70116 | 40853 ft | 480 kts | 116° |
| 2026-05-05 13:02 | 11.58734 | 85.76204 | 40857 ft | 480 kts | 116° |
| 2026-05-05 13:03 | 11.55738 | 85.82291 | 40858 ft | 480 kts | 116° |
| 2026-05-05 13:03 | 11.52741 | 85.88376 | 40856 ft | 480 kts | 116° |
| 2026-05-05 13:04 | 11.49746 | 85.94453 | 40858 ft | 480 kts | 116° |
| 2026-05-05 13:04 | 11.46746 | 86.00535 | 40855 ft | 480 kts | 116° |
| 2026-05-05 13:05 | 11.43746 | 86.06617 | 40855 ft | 480 kts | 116° |
| 2026-05-05 13:05 | 11.40743 | 86.12697 | 40855 ft | 480 kts | 116° |
| 2026-05-05 13:06 | 11.37740 | 86.18776 | 40854 ft | 480 kts | 116° |
| 2026-05-05 13:06 | 11.34739 | 86.24845 | 40856 ft | 479 kts | 116° |
| 2026-05-05 13:07 | 11.31741 | 86.30906 | 40857 ft | 479 kts | 116° |
| 2026-05-05 13:07 | 11.29250 | 86.35938 | 40863 ft | 479 kts | 116° |
| 2026-05-05 13:08 | 11.26262 | 86.41972 | 40856 ft | 475 kts | 116° |
| 2026-05-05 13:08 | 11.23286 | 86.47977 | 40858 ft | 474 kts | 116° |
| 2026-05-05 13:09 | 11.20312 | 86.53975 | 40857 ft | 474 kts | 116° |
| 2026-05-05 13:09 | 11.17336 | 86.59973 | 40855 ft | 474 kts | 116° |
| 2026-05-05 13:10 | 11.14359 | 86.65969 | 40861 ft | 474 kts | 116° |
| 2026-05-05 13:10 | 11.11381 | 86.71965 | 40857 ft | 474 kts | 116° |
| 2026-05-05 13:11 | 11.08405 | 86.77951 | 40859 ft | 474 kts | 116° |
| 2026-05-05 13:11 | 11.05424 | 86.83944 | 40862 ft | 474 kts | 116° |
| 2026-05-05 13:12 | 11.02442 | 86.89936 | 40864 ft | 474 kts | 116° |
| 2026-05-05 13:12 | 10.99459 | 86.95926 | 40861 ft | 474 kts | 117° |
| 2026-05-05 13:13 | 10.96477 | 87.01912 | 40867 ft | 474 kts | 117° |
| 2026-05-05 13:13 | 10.93495 | 87.07894 | 40863 ft | 474 kts | 117° |
| 2026-05-05 13:14 | 10.90512 | 87.13873 | 40863 ft | 473 kts | 116° |
| 2026-05-05 13:14 | 10.87531 | 87.19844 | 40863 ft | 473 kts | 116° |
| 2026-05-05 13:15 | 10.84553 | 87.25806 | 40868 ft | 473 kts | 116° |
| 2026-05-05 13:15 | 10.81572 | 87.31772 | 40863 ft | 473 kts | 116° |
| 2026-05-05 13:16 | 10.78585 | 87.37747 | 40866 ft | 475 kts | 117° |
| 2026-05-05 13:16 | 10.75580 | 87.43752 | 40868 ft | 477 kts | 117° |
| 2026-05-05 13:17 | 10.72570 | 87.49765 | 40866 ft | 477 kts | 117° |
| 2026-05-05 13:17 | 10.69579 | 87.55737 | 40866 ft | 477 kts | 117° |
| 2026-05-05 13:18 | 10.66567 | 87.61747 | 40867 ft | 477 kts | 117° |
| 2026-05-05 13:18 | 10.63533 | 87.67796 | 40871 ft | 477 kts | 117° |
| 2026-05-05 13:19 | 10.60543 | 87.73757 | 40860 ft | 477 kts | 117° |
| 2026-05-05 13:19 | 10.57523 | 87.79772 | 40861 ft | 478 kts | 117° |
| 2026-05-05 13:20 | 10.54499 | 87.85790 | 40872 ft | 478 kts | 117° |
| 2026-05-05 13:20 | 10.51471 | 87.91813 | 40879 ft | 479 kts | 117° |
| 2026-05-05 13:21 | 10.48442 | 87.97836 | 40880 ft | 478 kts | 117° |
| 2026-05-05 13:21 | 10.45413 | 88.03857 | 40882 ft | 478 kts | 117° |
| 2026-05-05 13:22 | 10.42383 | 88.09875 | 40861 ft | 479 kts | 117° |
| 2026-05-05 13:22 | 10.39342 | 88.15912 | 40876 ft | 481 kts | 117° |
| 2026-05-05 13:23 | 10.36292 | 88.21963 | 40879 ft | 482 kts | 117° |
| 2026-05-05 13:23 | 10.33236 | 88.28021 | 40865 ft | 482 kts | 117° |
| 2026-05-05 13:24 | 10.30179 | 88.34079 | 40880 ft | 482 kts | 117° |
| 2026-05-05 13:24 | 10.27122 | 88.40134 | 40873 ft | 482 kts | 117° |
| 2026-05-05 13:25 | 10.24063 | 88.46189 | 40876 ft | 482 kts | 117° |
| 2026-05-05 13:25 | 10.20999 | 88.52253 | 40870 ft | 484 kts | 117° |
| 2026-05-05 13:26 | 10.18021 | 88.58397 | 40872 ft | 484 kts | 115° |
| 2026-05-05 13:26 | 10.15230 | 88.64615 | 40874 ft | 484 kts | 115° |
| 2026-05-05 13:27 | 10.12440 | 88.70822 | 40877 ft | 483 kts | 115° |
| 2026-05-05 13:27 | 10.09620 | 88.77007 | 40871 ft | 483 kts | 115° |
| 2026-05-05 13:28 | 10.06782 | 88.83190 | 40870 ft | 483 kts | 115° |
| 2026-05-05 13:28 | 10.03939 | 88.89375 | 40870 ft | 484 kts | 115° |
| 2026-05-05 13:29 | 10.01087 | 88.95581 | 40876 ft | 486 kts | 115° |
| 2026-05-05 13:29 | 9.98231 | 89.01794 | 40877 ft | 486 kts | 115° |
| 2026-05-05 13:30 | 9.95392 | 89.07966 | 40878 ft | 486 kts | 115° |
| 2026-05-05 13:30 | 9.92533 | 89.14180 | 40875 ft | 486 kts | 115° |
| 2026-05-05 13:31 | 9.89675 | 89.20385 | 40872 ft | 486 kts | 115° |
| 2026-05-05 13:31 | 9.86793 | 89.26638 | 40877 ft | 486 kts | 114° |
| 2026-05-05 13:32 | 9.83947 | 89.32810 | 40876 ft | 486 kts | 114° |
| 2026-05-05 13:32 | 9.81085 | 89.39017 | 40875 ft | 485 kts | 114° |
| 2026-05-05 13:33 | 9.78230 | 89.45202 | 40878 ft | 484 kts | 114° |
| 2026-05-05 13:33 | 9.75376 | 89.51382 | 40876 ft | 484 kts | 114° |
| 2026-05-05 13:34 | 9.72522 | 89.57559 | 40878 ft | 484 kts | 114° |
| 2026-05-05 13:34 | 9.69667 | 89.63736 | 40880 ft | 484 kts | 115° |
| 2026-05-05 13:35 | 9.66814 | 89.69903 | 40878 ft | 484 kts | 114° |
| 2026-05-05 13:35 | 9.63956 | 89.76078 | 40878 ft | 484 kts | 114° |
| 2026-05-05 13:36 | 9.61097 | 89.82252 | 40879 ft | 484 kts | 114° |
| 2026-05-05 13:36 | 9.58237 | 89.88423 | 40880 ft | 484 kts | 115° |
| 2026-05-05 13:37 | 9.55376 | 89.94594 | 40880 ft | 484 kts | 114° |
| 2026-05-05 13:37 | 9.52515 | 90.00763 | 40875 ft | 484 kts | 114° |
| 2026-05-05 13:38 | 9.49666 | 90.06902 | 40879 ft | 482 kts | 114° |
| 2026-05-05 13:38 | 9.46811 | 90.13049 | 40880 ft | 482 kts | 115° |
| 2026-05-05 13:39 | 9.43959 | 90.19186 | 40881 ft | 482 kts | 115° |
| 2026-05-05 13:39 | 9.41106 | 90.25325 | 40881 ft | 482 kts | 115° |
| 2026-05-05 13:40 | 9.38252 | 90.31462 | 40878 ft | 482 kts | 115° |
| 2026-05-05 13:40 | 9.35397 | 90.37597 | 40880 ft | 482 kts | 115° |
| 2026-05-05 13:41 | 9.32540 | 90.43733 | 40878 ft | 483 kts | 115° |
| 2026-05-05 13:41 | 9.29671 | 90.49893 | 40877 ft | 484 kts | 115° |
| 2026-05-05 13:42 | 9.26795 | 90.56062 | 40877 ft | 484 kts | 115° |
| 2026-05-05 13:42 | 9.23921 | 90.62224 | 40876 ft | 484 kts | 115° |
| 2026-05-05 13:43 | 9.21046 | 90.68387 | 40878 ft | 484 kts | 115° |
| 2026-05-05 13:43 | 9.18171 | 90.74544 | 40880 ft | 484 kts | 115° |
| 2026-05-05 13:44 | 9.15295 | 90.80702 | 40881 ft | 483 kts | 114° |